Time;durP1;ratioP1;P1;durP2;ratioP2;P2;SDS_P1;SDS_P2;PMS_P1;PMS_P2;Temp;Humidity;BMP_temperature;BMP_pressure;BME280_temperature;BME280_humidity;BME280_pressure;Samples;Min_cycle;Max_cycle;Signal;HPM_P1;HPM_P2
2021/03/11 00:02:30;;;;;;;25.10;14.98;;;;;;;-4.00;61.20;101837.56;1845016;76;23135;-78
2021/03/11 00:04:59;;;;;;;29.55;15.53;;;;;;;-3.99;59.44;101838.42;1856088;77;20989;-79
2021/03/11 00:07:27;;;;;;;77.22;38.13;;;;;;;-3.93;59.22;101840.26;1786456;80;21204;-77
2021/03/11 00:09:57;;;;;;;25.57;13.15;;;;;;;-3.91;60.69;101844.97;1758935;80;21009;-78
2021/03/11 00:12:26;;;;;;;31.12;14.70;;;;;;;-3.91;59.14;101842.02;1818658;79;21054;-78
2021/03/11 00:14:54;;;;;;;25.52;13.28;;;;;;;-3.87;58.24;101840.34;1818650;78;20931;-78
2021/03/11 00:17:22;;;;;;;23.77;12.68;;;;;;;-3.82;57.52;101842.18;1818617;78;20942;-76
2021/03/11 00:19:50;;;;;;;26.45;14.43;;;;;;;-3.80;57.46;101841.80;1818599;78;21203;-77
2021/03/11 00:22:18;;;;;;;29.02;14.38;;;;;;;-3.76;57.30;101841.41;1818590;79;21034;-79
2021/03/11 00:24:47;;;;;;;29.10;15.45;;;;;;;-3.71;57.01;101842.39;1818612;78;21456;-78
2021/03/11 00:27:15;;;;;;;33.18;14.95;;;;;;;-3.67;56.81;101843.28;1818569;78;20974;-78
2021/03/11 00:29:43;;;;;;;31.62;18.55;;;;;;;-3.62;56.67;101841.27;1818658;79;20926;-77
2021/03/11 00:32:11;;;;;;;25.75;12.58;;;;;;;-3.57;57.23;101840.06;1818742;78;21019;-79
2021/03/11 00:34:39;;;;;;;28.47;13.75;;;;;;;-3.51;56.82;101841.85;1818575;79;20985;-78
2021/03/11 00:37:08;;;;;;;31.23;13.40;;;;;;;-3.49;56.43;101832.49;1818663;78;21014;-79
2021/03/11 00:39:36;;;;;;;27.80;13.72;;;;;;;-3.49;56.20;101839.79;1818572;79;21042;-78
2021/03/11 00:42:05;;;;;;;24.80;12.18;;;;;;;-3.48;56.02;101838.08;1818736;79;20935;-78
2021/03/11 00:44:33;;;;;;;28.02;13.30;;;;;;;-3.47;55.75;101834.23;1818744;78;21361;-78
2021/03/11 00:47:06;;;;;;;19.70;12.33;;;;;;;-3.48;55.75;101822.70;1818954;78;20959;-75
2021/03/11 00:49:35;;;;;;;27.20;13.83;;;;;;;-3.48;55.47;101820.13;1819994;79;20903;-75
2021/03/11 00:52:03;;;;;;;30.88;14.25;;;;;;;-3.47;55.65;101823.13;1818946;79;20962;-77
2021/03/11 00:54:31;;;;;;;27.20;12.13;;;;;;;-3.44;55.50;101816.79;1818767;78;21468;-78
2021/03/11 00:57:00;;;;;;;24.47;11.78;;;;;;;-3.42;55.24;101814.69;1818660;78;21191;-78
2021/03/11 00:59:30;;;;;;;32.98;14.45;;;;;;;-3.41;55.07;101814.27;1818490;78;20974;-80
2021/03/11 01:01:59;;;;;;;23.25;13.20;;;;;;;-3.36;54.96;101816.48;1809067;78;21551;-79
2021/03/11 01:04:28;;;;;;;33.20;13.88;;;;;;;-3.35;54.80;101815.23;1804450;79;21535;-81
2021/03/11 01:06:56;;;;;;;26.90;12.60;;;;;;;-3.35;54.84;101816.52;1804394;79;21034;-79
2021/03/11 01:09:24;;;;;;;22.82;12.23;;;;;;;-3.31;54.72;101814.88;1804410;79;21059;-78
2021/03/11 01:11:52;;;;;;;21.12;10.68;;;;;;;-3.33;54.65;101812.70;1804219;79;21385;-79
2021/03/11 01:14:20;;;;;;;23.87;12.20;;;;;;;-3.35;54.91;101812.66;1803709;79;20932;-79
2021/03/11 01:16:50;;;;;;;22.17;13.25;;;;;;;-3.36;54.88;101808.39;1803605;79;20936;-79
2021/03/11 01:19:19;;;;;;;43.83;19.90;;;;;;;-3.36;55.24;101806.22;1803943;79;20963;-79
2021/03/11 01:21:47;;;;;;;21.95;11.18;;;;;;;-3.32;56.73;101809.28;1804198;79;21351;-80
2021/03/11 01:24:17;;;;;;;21.55;10.53;;;;;;;-3.31;55.56;101808.86;1803842;79;20998;-80
2021/03/11 01:26:45;;;;;;;28.00;12.53;;;;;;;-3.34;55.22;101808.39;1803804;79;20951;-77
2021/03/11 01:29:13;;;;;;;19.27;10.48;;;;;;;-3.37;55.11;101801.52;1804159;79;20939;-77
2021/03/11 01:31:41;;;;;;;21.12;9.80;;;;;;;-3.38;55.17;101801.09;1803904;79;20946;-78
2021/03/11 01:34:10;;;;;;;31.70;11.78;;;;;;;-3.36;55.08;101807.50;1803830;79;21430;-81
2021/03/11 01:36:38;;;;;;;27.45;11.57;;;;;;;-3.38;54.94;101805.33;1804407;79;20959;-80
2021/03/11 01:39:07;;;;;;;24.30;11.25;;;;;;;-3.42;54.98;101804.44;1803917;79;21050;-82
2021/03/11 01:41:35;;;;;;;25.30;12.53;;;;;;;-3.42;55.05;101807.42;1803746;79;20971;-80
2021/03/11 01:44:04;;;;;;;27.25;12.47;;;;;;;-3.42;55.28;101812.13;1803818;79;21011;-78
2021/03/11 01:46:32;;;;;;;33.08;18.77;;;;;;;-3.40;55.43;101813.02;1803793;79;21784;-77
2021/03/11 01:49:01;;;;;;;33.80;19.80;;;;;;;-3.37;56.05;101820.75;1803721;79;20904;-77
2021/03/11 01:51:29;;;;;;;39.48;19.73;;;;;;;-3.34;57.16;101823.78;1803839;79;21381;-79
2021/03/11 01:53:56;;;;;;;44.30;21.62;;;;;;;-3.32;57.85;101818.26;1803737;79;20975;-80
2021/03/11 01:56:25;;;;;;;68.60;30.92;;;;;;;-3.31;58.19;101822.96;1807823;79;21330;-80
2021/03/11 01:58:53;;;;;;;54.75;25.23;;;;;;;-3.27;58.31;101824.74;1803745;79;21389;-80
2021/03/11 02:01:21;;;;;;;62.27;30.68;;;;;;;-3.32;58.26;101824.67;1803653;79;20979;-80
2021/03/11 02:03:50;;;;;;;52.58;24.40;;;;;;;-3.39;58.63;101827.55;1803813;79;21007;-79
2021/03/11 02:06:17;;;;;;;36.33;20.72;;;;;;;-3.45;58.15;101832.57;1803705;79;21444;-80
2021/03/11 02:08:46;;;;;;;57.10;29.92;;;;;;;-3.50;58.45;101834.20;1803788;79;21401;-79
2021/03/11 02:11:17;;;;;;;73.42;36.80;;;;;;;-3.52;58.84;101829.46;1803717;79;21673;-79
2021/03/11 02:13:53;;;;;;;60.40;32.25;;;;;;;-3.55;59.12;101829.42;1803763;79;21086;-78
2021/03/11 02:16:34;;;;;;;22.73;13.25;;;;;;;-3.52;59.28;101828.18;1803779;79;21341;-78
2021/03/11 02:19:26;;;;;;;47.75;25.40;;;;;;;-3.57;58.43;101830.66;1803754;79;20930;-78
2021/03/11 02:22:51;;;;;;;26.62;11.78;;;;;;;-3.59;58.64;101840.45;1803762;79;20888;-79
2021/03/11 02:25:30;;;;;;;19.32;10.58;;;;;;;-3.69;57.80;101842.00;1803775;79;21776;-79
2021/03/11 02:28:19;;;;;;;21.62;11.22;;;;;;;-3.80;57.89;101843.08;1803679;79;21393;-78
2021/03/11 02:30:48;;;;;;;25.95;13.90;;;;;;;-3.81;58.16;101844.31;1803650;79;20987;-78
2021/03/11 02:33:16;;;;;;;38.45;17.20;;;;;;;-3.79;58.00;101845.21;1803554;79;21159;-79
2021/03/11 02:35:44;;;;;;;24.85;13.35;;;;;;;-3.80;58.50;101843.47;1807604;79;20943;-77
2021/03/11 02:38:13;;;;;;;30.20;14.05;;;;;;;-3.81;58.31;101845.17;1803638;79;21818;-79
2021/03/11 02:40:42;;;;;;;40.83;20.43;;;;;;;-3.82;58.37;101846.45;1803549;79;20963;-80
2021/03/11 02:43:11;;;;;;;62.80;28.02;;;;;;;-3.79;59.08;101843.51;1803724;79;20952;-78
2021/03/11 02:45:40;;;;;;;53.45;24.77;;;;;;;-3.75;59.87;101847.86;1803702;79;20999;-79
2021/03/11 02:48:09;;;;;;;31.25;17.15;;;;;;;-3.73;59.59;101841.48;1781710;79;20931;-78
2021/03/11 02:50:38;;;;;;;57.73;29.25;;;;;;;-3.72;60.01;101847.05;1803737;79;21254;-78
2021/03/11 02:53:10;;;;;;;28.70;16.77;;;;;;;-3.78;60.90;101848.20;1781642;79;21042;-79
2021/03/11 02:55:40;;;;;;;50.00;25.70;;;;;;;-3.85;60.54;101849.79;1803836;79;21428;-79
2021/03/11 02:58:10;;;;;;;53.23;24.50;;;;;;;-3.93;61.23;101847.52;1803644;79;20955;-77
2021/03/11 03:00:40;;;;;;;44.38;23.95;;;;;;;-3.94;61.25;101851.33;1803813;79;21369;-78
2021/03/11 03:03:09;;;;;;;28.35;13.40;;;;;;;-3.98;61.63;101847.44;1810966;79;21372;-77
2021/03/11 03:05:37;;;;;;;45.92;21.82;;;;;;;-3.93;61.47;101847.95;1852387;77;20978;-78
2021/03/11 03:08:06;;;;;;;39.25;20.80;;;;;;;-3.94;61.35;101859.87;1749062;80;20921;-78
2021/03/11 03:10:35;;;;;;;37.05;18.30;;;;;;;-3.89;61.51;101849.31;1789538;80;20935;-79
2021/03/11 03:13:09;;;;;;;32.38;16.87;;;;;;;-3.93;61.60;101857.77;1852481;77;20926;-80
2021/03/11 03:15:37;;;;;;;37.60;18.05;;;;;;;-3.98;61.67;101855.12;1780539;80;21385;-78
2021/03/11 03:18:05;;;;;;;48.75;21.27;;;;;;;-4.02;61.47;101858.88;1789471;80;20947;-77
2021/03/11 03:20:33;;;;;;;39.48;22.05;;;;;;;-4.05;61.73;101854.95;1852418;77;20946;-80
2021/03/11 03:23:05;;;;;;;39.53;21.37;;;;;;;-4.09;61.63;101856.61;1780359;80;20952;-79
2021/03/11 03:25:35;;;;;;;41.88;18.95;;;;;;;-4.07;61.95;101850.20;1787609;80;20947;-79
2021/03/11 03:28:04;;;;;;;41.30;20.65;;;;;;;-4.08;62.20;101860.87;1852473;77;21230;-76
2021/03/11 03:30:32;;;;;;;29.00;15.13;;;;;;;-4.10;62.62;101861.27;1780374;80;20953;-79
2021/03/11 03:33:00;;;;;;;41.58;25.82;;;;;;;-4.09;62.06;101857.00;1789607;80;21022;-80
2021/03/11 03:35:28;;;;;;;33.90;19.40;;;;;;;-4.13;61.41;101856.09;1852480;77;20986;-81
2021/03/11 03:37:57;;;;;;;40.45;18.40;;;;;;;-4.21;61.63;101850.80;1780592;80;20984;-81
2021/03/11 03:40:25;;;;;;;42.75;17.95;;;;;;;-4.22;62.16;101858.47;1789678;80;21625;-79
2021/03/11 03:43:28;;;;;;;28.12;14.00;;;;;;;-4.22;62.02;101860.61;1852533;77;21325;-79
2021/03/11 03:46:11;;;;;;;19.90;12.85;;;;;;;-4.20;61.20;101856.80;1852474;77;21447;-78
2021/03/11 03:48:48;;;;;;;27.10;12.80;;;;;;;-4.23;60.47;101856.30;1780380;80;21016;-80
2021/03/11 03:51:23;;;;;;;33.98;14.10;;;;;;;-4.29;59.77;101857.48;1789157;80;21041;-79
2021/03/11 03:54:09;;;;;;;27.37;13.58;;;;;;;-4.29;59.16;101857.48;1852544;77;21819;-78
2021/03/11 03:56:43;;;;;;;26.02;14.83;;;;;;;-4.33;59.10;101859.94;1780460;80;21040;-78
2021/03/11 03:59:34;;;;;;;27.50;13.65;;;;;;;-4.36;59.12;101860.71;1789660;80;20950;-80
2021/03/11 04:02:07;;;;;;;29.50;14.65;;;;;;;-4.33;59.00;101865.92;1850594;77;20923;-79
2021/03/11 04:04:47;;;;;;;25.65;13.90;;;;;;;-4.37;58.69;101866.25;1844542;77;21014;-79
2021/03/11 04:07:20;;;;;;;24.60;12.50;;;;;;;-4.37;58.57;101874.36;1844703;77;21368;-78
2021/03/11 04:09:48;;;;;;;25.65;13.88;;;;;;;-4.40;58.55;101877.73;1759906;80;20959;-78
2021/03/11 04:12:17;;;;;;;25.20;12.68;;;;;;;-4.41;58.54;101876.41;1844821;77;21460;-79
2021/03/11 04:14:45;;;;;;;21.90;12.60;;;;;;;-4.41;58.58;101872.56;1760057;81;21356;-79
2021/03/11 04:17:16;;;;;;;22.85;12.30;;;;;;;-4.38;58.42;101876.45;1813526;77;21441;-78
2021/03/11 04:19:44;;;;;;;28.23;14.93;;;;;;;-4.36;58.35;101881.20;1844918;77;21180;-78
2021/03/11 04:22:14;;;;;;;39.03;16.73;;;;;;;-4.32;58.53;101877.02;1760018;81;20965;-78
2021/03/11 04:24:43;;;;;;;23.77;13.03;;;;;;;-4.23;59.33;101881.91;1845745;77;20931;-77
2021/03/11 04:27:11;;;;;;;28.70;13.13;;;;;;;-4.17;58.81;101882.05;1762778;81;21188;-76
2021/03/11 04:29:40;;;;;;;35.48;18.30;;;;;;;-4.15;58.74;101887.63;1848477;77;21014;-77
2021/03/11 04:32:10;;;;;;;156.67;63.50;;;;;;;-4.18;58.29;101881.61;1763534;79;21367;-76
2021/03/11 04:34:38;;;;;;;176.10;70.50;;;;;;;-4.17;59.24;101885.89;1847440;77;20986;-77
2021/03/11 04:37:06;;;;;;;127.27;52.78;;;;;;;-4.20;59.68;101893.52;1762532;81;20963;-77
2021/03/11 04:39:34;;;;;;;118.72;49.00;;;;;;;-4.17;59.93;101896.12;1813669;77;20919;-79
2021/03/11 04:42:03;;;;;;;106.67;40.88;;;;;;;-4.19;59.89;101895.66;1760123;80;20951;-77
2021/03/11 04:44:31;;;;;;;113.32;44.33;;;;;;;-4.23;60.14;101893.86;1844877;77;21623;-77
2021/03/11 04:46:59;;;;;;;95.03;36.98;;;;;;;-4.25;60.33;101898.94;1760351;80;21002;-76
2021/03/11 04:49:30;;;;;;;79.87;34.80;;;;;;;-4.25;60.42;101902.77;1845125;77;21412;-77
2021/03/11 04:52:00;;;;;;;85.38;36.28;;;;;;;-4.25;60.30;101904.05;1760160;80;20970;-77
2021/03/11 04:54:28;;;;;;;95.12;37.50;;;;;;;-4.24;60.42;101908.79;1844763;77;20935;-77
2021/03/11 04:56:56;;;;;;;91.47;38.98;;;;;;;-4.23;60.78;101907.52;1845061;77;21338;-78
2021/03/11 04:59:25;;;;;;;86.72;38.02;;;;;;;-4.01;60.70;101914.38;1760079;81;20954;-78
2021/03/11 05:01:55;;;;;;;72.03;31.55;;;;;;;-3.74;60.59;101912.79;1844820;77;20926;-79
2021/03/11 05:04:24;;;;;;;68.70;32.25;;;;;;;-3.28;59.96;101913.66;1844765;77;20935;-78
2021/03/11 05:06:52;;;;;;;79.27;34.75;;;;;;;-2.65;58.92;101918.54;1760175;81;20891;-78
2021/03/11 05:09:21;;;;;;;71.82;32.70;;;;;;;-1.95;57.74;101913.53;1844849;77;21354;-77
2021/03/11 05:11:49;;;;;;;67.47;30.32;;;;;;;-1.23;56.52;101919.89;1760316;80;21456;-77
2021/03/11 05:14:17;;;;;;;76.55;31.30;;;;;;;-0.58;54.97;101922.56;1844998;77;21436;-80
2021/03/11 05:16:45;;;;;;;61.02;30.95;;;;;;;-0.04;54.09;101918.61;1760165;80;21053;-78
2021/03/11 05:19:15;;;;;;;27.45;15.80;;;;;;;0.36;52.88;101924.36;1845182;77;20922;-77
2021/03/11 05:21:43;;;;;;;25.32;13.68;;;;;;;0.57;50.57;101924.41;1760352;80;21098;-76
2021/03/11 05:24:11;;;;;;;26.10;15.30;;;;;;;0.80;49.77;101922.29;1845756;77;20931;-78
2021/03/11 05:26:39;;;;;;;30.00;15.58;;;;;;;1.10;48.83;101921.91;1763418;81;20939;-77
2021/03/11 05:29:11;;;;;;;32.25;15.55;;;;;;;1.26;47.44;101929.22;1846773;77;20951;-76
2021/03/11 05:31:39;;;;;;;27.55;15.00;;;;;;;1.42;46.88;101920.58;1760822;80;20950;-76
2021/03/11 05:34:08;;;;;;;27.67;15.70;;;;;;;1.62;46.42;101921.44;1844824;77;21371;-80
2021/03/11 05:36:37;;;;;;;27.60;14.60;;;;;;;1.92;45.34;101920.92;1844807;77;21017;-79
2021/03/11 05:39:10;;;;;;;26.82;14.40;;;;;;;2.07;44.86;101924.75;1760119;80;21069;-78
2021/03/11 05:41:39;;;;;;;39.18;14.43;;;;;;;2.15;45.17;101918.67;1844709;77;21424;-78
2021/03/11 05:44:10;;;;;;;29.32;15.03;;;;;;;2.26;44.19;101924.66;1741210;81;21531;-76
2021/03/11 05:46:39;;;;;;;22.58;13.38;;;;;;;2.46;43.02;101924.13;1844663;77;21432;-77
2021/03/11 05:49:10;;;;;;;21.23;11.53;;;;;;;2.64;42.71;101927.48;1759968;81;21025;-76
2021/03/11 05:51:50;;;;;;;29.52;13.90;;;;;;;2.83;40.70;101935.58;1844894;77;21428;-77
2021/03/11 05:54:20;;;;;;;27.52;13.35;;;;;;;2.87;41.08;101932.54;1759166;81;20999;-77
2021/03/11 05:56:50;;;;;;;20.48;12.35;;;;;;;3.07;40.80;101929.80;1842584;77;20936;-77
2021/03/11 05:59:22;;;;;;;19.05;11.90;;;;;;;3.44;39.76;101926.44;1760173;80;21545;-82
2021/03/11 06:01:55;;;;;;;21.97;11.45;;;;;;;3.90;38.74;101927.71;1844831;77;20982;-82
2021/03/11 06:04:23;;;;;;;21.82;12.63;;;;;;;4.31;37.65;101935.44;1843698;77;20931;-83
2021/03/11 06:06:53;;;;;;;22.77;13.78;;;;;;;4.69;36.30;101932.75;1772071;80;21375;-82
2021/03/11 06:09:22;;;;;;;32.30;15.10;;;;;;;4.91;35.78;101941.98;1775676;80;20935;-83
2021/03/11 06:11:50;;;;;;;27.73;14.20;;;;;;;5.03;35.07;101929.67;1775595;80;21198;-84
2021/03/11 06:14:19;;;;;;;41.13;16.85;;;;;;;5.25;34.88;101935.39;1775501;80;21006;-84
2021/03/11 06:16:57;;;;;;;37.63;17.42;;;;;;;5.48;33.64;101934.98;1803797;79;21027;-81
2021/03/11 06:19:25;;;;;;;46.28;21.70;;;;;;;5.53;33.40;101931.84;1803493;79;20903;-82
2021/03/11 06:21:53;;;;;;;28.15;16.25;;;;;;;5.69;33.07;101936.33;1803833;79;20935;-80
2021/03/11 06:24:21;;;;;;;23.05;12.15;;;;;;;5.87;33.08;101949.44;1803692;79;21810;-79
2021/03/11 06:26:50;;;;;;;20.70;11.55;;;;;;;6.05;32.38;101940.44;1803533;79;20991;-79
2021/03/11 06:29:20;;;;;;;19.20;10.95;;;;;;;6.21;31.72;101929.70;1803759;79;21019;-80
2021/03/11 06:31:48;;;;;;;20.60;10.15;;;;;;;6.29;30.86;101937.78;1803801;79;20991;-81
2021/03/11 06:34:22;;;;;;;16.52;8.95;;;;;;;6.33;31.01;101950.72;1803387;79;21018;-78
2021/03/11 06:36:50;;;;;;;22.82;11.18;;;;;;;6.47;30.49;101948.27;1772097;81;21209;-79
2021/03/11 06:39:26;;;;;;;17.75;11.45;;;;;;;6.59;30.01;101950.17;1775568;80;21015;-80
2021/03/11 06:41:54;;;;;;;19.20;9.28;;;;;;;6.77;29.47;101952.80;1803677;79;20951;-80
2021/03/11 06:44:44;;;;;;;20.27;9.95;;;;;;;6.84;29.12;101949.16;1803918;79;20880;-81
2021/03/11 06:47:15;;;;;;;19.32;10.78;;;;;;;6.95;29.29;101955.89;1772140;80;21328;-80
2021/03/11 06:50:00;;;;;;;21.35;9.93;;;;;;;7.14;29.98;101960.23;1775627;80;21046;-81
2021/03/11 06:52:28;;;;;;;16.17;11.03;;;;;;;7.42;29.52;101964.31;1772010;79;21017;-82
2021/03/11 06:55:05;;;;;;;13.25;9.18;;;;;;;7.70;29.27;101961.00;1803627;79;21461;-83
2021/03/11 06:57:37;;;;;;;16.52;9.85;;;;;;;7.96;28.61;101964.20;1772082;80;20957;-83
2021/03/11 07:00:22;;;;;;;19.42;9.60;;;;;;;7.97;28.13;101972.00;1775779;80;21066;-84
2021/03/11 07:03:02;;;;;;;13.13;8.73;;;;;;;7.77;28.22;101968.63;1774414;80;21422;-80
2021/03/11 07:05:30;;;;;;;14.05;7.97;;;;;;;7.82;28.40;101965.43;1818417;79;21022;-81
2021/03/11 07:08:14;;;;;;;12.70;9.25;;;;;;;7.77;28.31;101958.17;1760942;80;20948;-82
2021/03/11 07:10:47;;;;;;;13.75;6.87;;;;;;;7.71;28.11;101965.31;1800785;79;20898;-81
2021/03/11 07:13:15;;;;;;;16.95;8.50;;;;;;;7.75;27.81;101979.55;1786426;80;20941;-83
2021/03/11 07:15:44;;;;;;;8.55;6.67;;;;;;;7.71;27.69;101964.02;1818623;79;21367;-83
2021/03/11 07:18:24;;;;;;;15.13;7.80;;;;;;;7.68;27.78;101963.65;1815390;79;21487;-83
2021/03/11 07:20:52;;;;;;;20.10;9.33;;;;;;;7.76;27.99;101966.92;1818827;79;20935;-81
2021/03/11 07:23:21;;;;;;;17.37;9.10;;;;;;;7.95;28.24;101971.19;1818564;79;20923;-80
2021/03/11 07:25:49;;;;;;;13.68;7.83;;;;;;;8.18;27.51;101963.16;1786481;80;21489;-84
2021/03/11 07:28:25;;;;;;;12.82;7.03;;;;;;;8.39;26.87;101974.77;1800933;79;21205;-82
2021/03/11 07:31:01;;;;;;;15.95;8.90;;;;;;;8.46;27.07;101967.17;1786219;80;21139;-82
2021/03/11 07:33:31;;;;;;;13.40;7.47;;;;;;;8.52;26.85;101959.16;1801075;79;20966;-82
2021/03/11 07:36:02;;;;;;;11.33;6.60;;;;;;;8.71;26.50;101963.37;1786361;79;21001;-81
2021/03/11 07:38:32;;;;;;;13.72;7.10;;;;;;;8.88;26.34;101961.55;1801453;79;21412;-81
2021/03/11 07:41:06;;;;;;;20.02;8.00;;;;;;;9.03;26.18;101966.77;1787346;80;21360;-79
2021/03/11 07:43:36;;;;;;;15.40;8.03;;;;;;;9.19;25.83;101968.42;1801448;79;20958;-78
2021/03/11 07:46:06;;;;;;;11.78;6.87;;;;;;;9.21;25.40;101957.00;1786591;79;21367;-83
2021/03/11 07:48:34;;;;;;;13.38;6.28;;;;;;;9.26;25.51;101957.69;1818673;78;21356;-83
2021/03/11 07:51:04;;;;;;;14.53;8.00;;;;;;;9.32;25.10;101957.95;1818592;79;20935;-84
2021/03/11 07:53:32;;;;;;;12.65;7.35;;;;;;;9.23;25.33;101953.88;1818503;79;21334;-82
2021/03/11 07:56:01;;;;;;;10.90;7.70;;;;;;;9.09;25.32;101953.45;1786190;79;20956;-81
2021/03/11 07:58:30;;;;;;;9.85;5.37;;;;;;;9.12;25.93;101954.69;1799134;79;21013;-81
2021/03/11 08:01:02;;;;;;;9.93;5.20;;;;;;;9.45;24.57;101962.30;1786046;79;20945;-80
2021/03/11 08:03:30;;;;;;;9.00;5.25;;;;;;;9.45;24.44;101951.83;1764486;80;20975;-81
2021/03/11 08:06:20;;;;;;;10.90;7.33;;;;;;;9.47;24.79;101954.83;1774029;80;21221;-82
2021/03/11 08:08:49;;;;;;;10.80;6.10;;;;;;;9.58;24.38;101948.34;1773803;81;21230;-82
2021/03/11 08:11:38;;;;;;;14.23;5.70;;;;;;;9.62;24.85;101946.03;1774237;81;21583;-80
2021/03/11 08:14:25;;;;;;;13.38;5.60;;;;;;;9.82;24.46;101944.02;1774028;80;21037;-81
2021/03/11 08:16:53;;;;;;;10.60;4.20;;;;;;;9.89;23.66;101935.02;1790876;80;20942;-79
2021/03/11 08:19:40;;;;;;;12.53;5.65;;;;;;;9.84;23.17;101943.05;1753759;81;21127;-78
2021/03/11 08:22:08;;;;;;;21.15;5.70;;;;;;;9.70;23.58;101942.70;1774035;80;21003;-83
2021/03/11 08:24:48;;;;;;;10.93;4.92;;;;;;;9.59;24.07;101940.91;1791198;80;20998;-79
2021/03/11 08:27:35;;;;;;;11.18;5.80;;;;;;;9.60;23.88;101946.53;1753905;81;21033;-76
2021/03/11 08:30:04;;;;;;;7.30;4.97;;;;;;;9.42;23.90;101942.78;1717280;83;20967;-79
2021/03/11 08:32:51;;;;;;;9.48;5.92;;;;;;;9.07;24.07;101935.21;1783475;79;22215;-79
2021/03/11 08:35:43;;;;;;;7.33;4.80;;;;;;;9.02;24.43;101943.64;1783490;79;21040;-78
2021/03/11 08:38:27;;;;;;;9.18;5.12;;;;;;;9.04;24.31;101943.14;1783516;79;20945;-78
2021/03/11 08:41:12;;;;;;;17.07;6.33;;;;;;;8.74;24.41;101939.75;1783322;79;21608;-77
2021/03/11 08:43:46;;;;;;;16.52;6.45;;;;;;;8.65;24.83;101941.35;1783368;79;21049;-75
2021/03/11 08:46:19;;;;;;;13.68;6.15;;;;;;;8.57;24.95;101951.17;1783421;79;21186;-75
2021/03/11 08:49:01;;;;;;;14.95;6.37;;;;;;;8.55;25.30;101945.13;1852286;77;22762;-80
2021/03/11 08:51:35;;;;;;;10.80;6.25;;;;;;;8.46;26.46;101944.50;1820124;78;20974;-80
2021/03/11 08:54:08;;;;;;;15.37;6.70;;;;;;;8.71;25.54;101948.55;1820585;78;21639;-80
2021/03/11 08:56:38;;;;;;;13.08;6.62;;;;;;;8.70;25.64;101944.67;1750179;81;21498;-76
2021/03/11 08:59:15;;;;;;;17.15;6.65;;;;;;;8.79;25.75;101952.69;1820205;78;20947;-79
2021/03/11 09:01:56;;;;;;;12.68;6.35;;;;;;;8.98;25.50;101956.45;1820574;78;20931;-79
2021/03/11 09:04:35;;;;;;;14.23;6.60;;;;;;;9.16;25.63;101951.06;1820245;78;21341;-78
2021/03/11 09:07:10;;;;;;;10.95;6.42;;;;;;;9.26;25.38;101948.53;1819944;78;21394;-84
2021/03/11 09:09:51;;;;;;;9.10;6.03;;;;;;;9.20;25.34;101953.96;1751009;81;21004;-80
2021/03/11 09:12:36;;;;;;;8.73;5.92;;;;;;;9.24;25.17;101956.88;1815499;78;20997;-76
2021/03/11 09:15:09;;;;;;;9.10;6.20;;;;;;;9.27;25.16;101952.00;1750506;81;20946;-78
2021/03/11 09:17:38;;;;;;;15.53;7.25;;;;;;;9.19;25.64;101952.72;1820431;78;21037;-80
2021/03/11 09:20:14;;;;;;;12.07;7.12;;;;;;;9.25;25.44;101945.53;1820258;78;21507;-80
2021/03/11 09:22:47;;;;;;;11.28;7.05;;;;;;;9.18;25.16;101949.69;1820401;78;20922;-79
2021/03/11 09:25:21;;;;;;;9.60;6.20;;;;;;;9.08;25.77;101951.76;1820375;78;21396;-79
2021/03/11 09:28:01;;;;;;;8.73;6.08;;;;;;;9.20;25.65;101942.18;1819960;78;21580;-79
2021/03/11 09:30:39;;;;;;;11.20;5.70;;;;;;;9.49;25.28;101944.28;1750113;81;20945;-79
2021/03/11 09:33:17;;;;;;;9.95;5.22;;;;;;;9.79;24.93;101945.45;1819730;78;22367;-79
2021/03/11 09:35:44;;;;;;;8.05;6.12;;;;;;;9.97;23.61;101942.16;1750196;81;21523;-80
2021/03/11 09:38:23;;;;;;;9.30;5.53;;;;;;;9.73;23.78;101943.89;1820085;78;20934;-79
2021/03/11 09:40:58;;;;;;;7.00;4.80;;;;;;;9.49;23.83;101945.59;1819594;78;21097;-81
2021/03/11 09:43:35;;;;;;;14.83;5.12;;;;;;;9.18;24.25;101940.53;1750352;81;20949;-82
2021/03/11 09:46:15;;;;;;;11.20;5.28;;;;;;;9.09;24.43;101945.17;1820037;78;22268;-79
2021/03/11 09:48:47;;;;;;;9.75;5.42;;;;;;;8.92;24.46;101948.78;1819836;78;20987;-82
2021/03/11 09:51:22;;;;;;;12.90;5.85;;;;;;;8.39;24.83;101945.55;1819902;78;20923;-80
2021/03/11 09:53:54;;;;;;;8.78;5.08;;;;;;;8.22;25.24;101945.19;1750267;81;21474;-82
2021/03/11 09:56:26;;;;;;;13.88;5.67;;;;;;;8.17;25.54;101927.03;1820227;78;20931;-81
2021/03/11 09:59:02;;;;;;;12.93;5.58;;;;;;;8.40;25.45;101933.34;1820151;78;21368;-80
2021/03/11 10:01:35;;;;;;;8.15;4.78;;;;;;;8.56;25.55;101937.25;1819996;78;21444;-81
2021/03/11 10:04:28;;;;;;;;;;;;;;;8.80;25.11;101947.39;1822659;78;20934;-85
2021/03/11 10:06:57;;;;;;;8.18;5.62;;;;;;;8.90;24.87;101937.51;1819494;78;20161;-79
2021/03/11 10:09:26;;;;;;;6.00;4.92;;;;;;;8.87;25.11;101941.51;1749792;81;20942;-79
2021/03/11 10:11:54;;;;;;;10.60;4.50;;;;;;;8.36;25.58;101938.24;1788203;78;21370;-81
2021/03/11 10:14:28;;;;;;;9.58;4.37;;;;;;;7.95;25.44;101930.70;1819403;78;21136;-79
2021/03/11 10:16:58;;;;;;;12.85;4.78;;;;;;;7.71;25.83;101929.61;1819483;78;21286;-82
2021/03/11 10:19:35;;;;;;;6.03;4.78;;;;;;;7.57;26.44;101922.16;1819398;78;20938;-82
2021/03/11 10:22:10;;;;;;;8.98;5.42;;;;;;;7.67;26.00;101935.84;1749746;82;20950;-83
2021/03/11 10:24:52;;;;;;;8.63;4.08;;;;;;;7.64;25.94;101935.45;1819267;78;21384;-81
2021/03/11 10:27:30;;;;;;;8.55;4.72;;;;;;;7.67;26.27;101930.16;1749531;81;20966;-81
2021/03/11 10:30:40;;;;;;;7.72;5.30;;;;;;;7.88;26.19;101927.86;1818665;78;21057;-79
2021/03/11 10:34:08;;;;;;;9.53;6.05;;;;;;;8.00;25.62;101918.81;1815946;79;25822;-80
2021/03/11 10:36:37;;;;;;;6.90;5.20;;;;;;;7.70;26.06;101916.62;1789233;80;21575;-81
2021/03/11 10:39:18;;;;;;;8.93;5.62;;;;;;;7.33;26.98;101907.14;1725751;81;21002;-79
2021/03/11 10:42:03;;;;;;;6.87;4.97;;;;;;;7.36;26.97;101918.36;1724295;83;20975;-80
2021/03/11 10:44:35;;;;;;;11.97;5.70;;;;;;;7.53;27.69;101907.47;1754515;81;20968;-82
2021/03/11 10:47:17;;;;;;;7.55;4.55;;;;;;;7.39;26.98;101897.39;1757830;81;20963;-79
2021/03/11 10:49:46;;;;;;;6.33;5.28;;;;;;;7.10;27.00;101912.95;1725174;83;21353;-78
2021/03/11 10:52:17;;;;;;;8.73;4.35;;;;;;;6.78;26.94;101908.91;1723255;83;21394;-77
2021/03/11 10:54:45;;;;;;;12.03;5.45;;;;;;;6.31;27.44;101901.69;1726115;82;20935;-78
2021/03/11 10:57:17;;;;;;;8.33;5.10;;;;;;;5.78;27.92;101898.41;1725790;83;20959;-79
2021/03/11 10:59:58;;;;;;;9.58;5.65;;;;;;;5.24;28.93;101895.95;1723519;83;20967;-76
2021/03/11 11:02:29;;;;;;;7.50;6.05;;;;;;;5.17;29.96;101899.09;1722823;83;20943;-79
2021/03/11 11:05:00;;;;;;;8.13;5.50;;;;;;;5.06;30.43;101895.36;1722989;83;21067;-75
2021/03/11 11:07:28;;;;;;;10.20;5.47;;;;;;;5.31;30.26;101893.64;1722897;83;21026;-78
2021/03/11 11:09:56;;;;;;;11.20;5.80;;;;;;;5.61;29.74;101891.80;1722902;83;21121;-77
2021/03/11 11:12:25;;;;;;;9.38;5.70;;;;;;;5.87;29.51;101878.73;1722771;83;20916;-78
2021/03/11 11:14:53;;;;;;;8.03;5.55;;;;;;;6.24;29.45;101881.88;1722852;83;20971;-78
2021/03/11 11:17:22;;;;;;;7.67;4.97;;;;;;;6.32;28.36;101879.12;1722956;83;21454;-77
2021/03/11 11:19:50;;;;;;;7.50;5.10;;;;;;;6.26;28.77;101878.80;1722746;83;21026;-77
2021/03/11 11:22:18;;;;;;;8.53;6.10;;;;;;;6.21;28.68;101873.70;1722834;83;21058;-77
2021/03/11 11:24:47;;;;;;;10.85;5.42;;;;;;;6.16;28.58;101885.12;1722886;83;21644;-78
2021/03/11 11:27:16;;;;;;;5.72;4.75;;;;;;;5.96;28.61;101895.95;1723038;83;21070;-78
2021/03/11 11:29:44;;;;;;;8.68;5.25;;;;;;;5.64;28.71;101871.35;1722830;83;21981;-81
2021/03/11 11:32:13;;;;;;;7.87;5.55;;;;;;;5.36;29.65;101867.13;1719075;83;21142;-79
2021/03/11 11:34:41;;;;;;;14.10;6.17;;;;;;;5.29;30.18;101866.38;1773635;81;21003;-78
2021/03/11 11:37:14;;;;;;;11.00;5.75;;;;;;;5.27;30.80;101864.67;1734237;82;20940;-76
2021/03/11 11:39:43;;;;;;;12.68;6.28;;;;;;;5.22;30.01;101866.50;1773653;81;20935;-74
2021/03/11 11:42:12;;;;;;;9.65;5.97;;;;;;;4.91;30.42;101867.91;1773573;80;21786;-76
2021/03/11 11:44:40;;;;;;;8.83;5.83;;;;;;;4.62;30.96;101867.48;1733888;82;20959;-77